Time;durP1;ratioP1;P1;durP2;ratioP2;P2;SDS_P1;SDS_P2;PMS_P1;PMS_P2;Temp;Humidity;BMP_temperature;BMP_pressure;BME280_temperature;BME280_humidity;BME280_pressure;Samples;Min_cycle;Max_cycle;Signal;HPM_P1;HPM_P2
2023/02/24 00:02:14;;;;;;;8.50;5.60;;;;;;;-2.10;76.20;98705.71;105875;1254;61150;-25
2023/02/24 00:04:42;;;;;;;10.10;4.90;;;;;;;-1.60;75.60;98705.60;105735;1254;73707;-25
2023/02/24 00:07:11;;;;;;;13.20;5.00;;;;;;;-1.31;74.39;98701.33;105916;1254;75901;-25
2023/02/24 00:09:40;;;;;;;8.40;4.70;;;;;;;-1.40;73.97;98696.02;105877;1258;74471;-25
2023/02/24 00:12:13;;;;;;;6.40;4.30;;;;;;;-1.61;74.57;98688.66;105879;1259;61409;-25
2023/02/24 00:14:47;;;;;;;5.70;3.60;;;;;;;-1.82;75.18;98683.98;105635;1258;62169;-25
2023/02/24 00:17:15;;;;;;;7.30;4.90;;;;;;;-1.99;75.64;98681.01;105651;1254;75657;-25
2023/02/24 00:19:45;;;;;;;10.10;5.50;;;;;;;-1.97;76.55;98670.91;105584;1259;75862;-25
2023/02/24 00:22:13;;;;;;;6.40;3.70;;;;;;;-1.51;75.47;98671.61;105851;1254;74192;-25
2023/02/24 00:24:43;;;;;;;7.80;5.40;;;;;;;-1.37;74.52;98662.20;105795;1254;61142;-25
2023/02/24 00:27:12;;;;;;;11.00;6.50;;;;;;;-1.46;74.54;98655.92;105877;1254;62102;-25
2023/02/24 00:29:44;;;;;;;6.50;4.30;;;;;;;-1.68;75.10;98656.39;105863;1260;75648;-25
2023/02/24 00:32:13;;;;;;;6.90;3.20;;;;;;;-1.82;75.54;98655.70;105722;1258;75053;-25
2023/02/24 00:34:43;;;;;;;8.00;4.70;;;;;;;-2.00;76.22;98650.91;105864;1254;74175;-25
2023/02/24 00:37:14;;;;;;;7.60;5.60;;;;;;;-1.79;76.50;98642.00;105840;1255;62026;-25
2023/02/24 00:39:46;;;;;;;7.90;4.80;;;;;;;-1.24;74.80;98639.38;105604;1259;62195;-25
2023/02/24 00:42:15;;;;;;;8.00;6.00;;;;;;;-1.19;73.93;98634.06;105724;1260;74583;-25
2023/02/24 00:44:46;;;;;;;6.50;4.70;;;;;;;-1.31;74.23;98636.60;105851;1254;76197;-25
2023/02/24 00:47:17;;;;;;;10.10;4.60;;;;;;;-1.53;74.96;98627.73;105617;1254;73182;-25
2023/02/24 00:49:47;;;;;;;7.70;4.90;;;;;;;-1.72;75.65;98630.34;105694;1255;61079;-25
2023/02/24 00:52:17;;;;;;;10.00;5.10;;;;;;;-1.88;76.39;98624.63;105656;1257;61874;-25
2023/02/24 00:54:47;;;;;;;12.60;5.10;;;;;;;-1.56;76.04;98622.25;105869;1255;75881;-25
2023/02/24 00:57:17;;;;;;;8.80;4.90;;;;;;;-1.19;74.59;98618.75;105710;1262;76584;-25
2023/02/24 00:59:50;;;;;;;10.00;6.40;;;;;;;-1.23;74.37;98613.81;105659;1254;74190;-25
2023/02/24 01:02:20;;;;;;;9.60;4.80;;;;;;;-1.39;74.98;98611.38;105655;1256;61077;-25
2023/02/24 01:04:50;;;;;;;6.30;3.70;;;;;;;-1.55;75.21;98603.64;105744;1259;62595;-25
2023/02/24 01:07:19;;;;;;;7.80;5.30;;;;;;;-1.76;76.38;98598.46;105562;1258;74672;-25
2023/02/24 01:09:49;;;;;;;5.90;3.40;;;;;;;-1.60;76.75;98591.90;105681;1259;75923;-25
2023/02/24 01:12:48;;;;;;;7.70;4.90;;;;;;;-1.05;74.76;98587.69;105444;1254;74469;-25
2023/02/24 01:15:18;;;;;;;3.00;2.50;;;;;;;-0.97;73.95;98579.55;105637;1260;61199;-25
2023/02/24 01:17:46;;;;;;;7.40;4.70;;;;;;;-1.16;74.31;98576.20;105665;1254;61161;-25
2023/02/24 01:20:17;;;;;;;11.20;6.90;;;;;;;-1.36;74.76;98569.68;105647;1258;75633;-25
2023/02/24 01:22:51;;;;;;;8.90;4.70;;;;;;;-1.53;75.48;98564.93;105699;1258;74878;-25
2023/02/24 01:25:20;;;;;;;5.90;4.20;;;;;;;-1.70;76.30;98555.00;105684;1256;74438;-25
2023/02/24 01:27:49;;;;;;;5.10;3.70;;;;;;;-1.38;76.40;98550.52;105860;1254;61065;-25
2023/02/24 01:30:19;;;;;;;11.10;5.50;;;;;;;-0.91;74.99;98553.04;105778;1257;61239;-25
2023/02/24 01:32:48;;;;;;;6.00;4.00;;;;;;;-0.88;74.36;98550.52;105787;1254;75506;-25
2023/02/24 01:35:22;;;;;;;7.50;5.00;;;;;;;-1.10;74.73;98542.90;105827;1256;75889;-25
2023/02/24 01:37:52;;;;;;;5.00;4.10;;;;;;;-1.27;75.43;98542.26;105848;1254;74267;-25
2023/02/24 01:40:20;;;;;;;9.20;5.00;;;;;;;-1.42;76.15;98538.11;105651;1254;61094;-25
2023/02/24 01:42:51;;;;;;;8.80;5.50;;;;;;;-1.55;76.80;98535.36;105831;1256;62145;-25
2023/02/24 01:45:21;;;;;;;9.30;5.50;;;;;;;-1.26;76.67;98528.92;105675;1259;75574;-25
2023/02/24 01:47:52;;;;;;;10.50;6.00;;;;;;;-0.87;75.69;98529.02;105438;1263;75799;-25
2023/02/24 01:50:21;;;;;;;10.30;6.50;;;;;;;-0.86;75.16;98533.38;105512;1260;74520;-25
2023/02/24 01:52:57;;;;;;;8.70;5.50;;;;;;;-1.03;75.60;98533.61;105527;1259;61223;-25
2023/02/24 01:55:39;;;;;;;13.50;6.30;;;;;;;-1.13;75.67;98529.25;105660;1254;61705;-26
2023/02/24 01:58:11;;;;;;;5.40;3.00;;;;;;;-1.31;76.71;98527.42;105903;1254;75533;-25
2023/02/24 02:00:44;;;;;;;8.30;4.30;;;;;;;-1.00;76.65;98528.35;105490;1263;75945;-25
2023/02/24 02:03:30;;;;;;;8.90;4.90;;;;;;;-0.68;75.63;98525.30;105336;1259;74431;-25
2023/02/24 02:06:04;;;;;;;10.10;5.30;;;;;;;-0.72;75.28;98517.94;105325;1254;61141;-25
2023/02/24 02:08:35;;;;;;;18.60;6.00;;;;;;;-0.94;76.13;98516.17;105545;1254;62197;-25
2023/02/24 02:11:21;;;;;;;7.10;4.40;;;;;;;-1.04;76.20;98517.45;105513;1259;75674;-25
2023/02/24 02:13:55;;;;;;;9.70;6.40;;;;;;;-1.02;76.91;98509.17;105433;1261;75979;-25
2023/02/24 02:16:35;;;;;;;8.60;5.00;;;;;;;-0.54;75.94;98508.33;105585;1254;72161;-25
2023/02/24 02:19:15;;;;;;;8.80;5.00;;;;;;;-0.40;75.08;98505.82;105655;1262;61247;-25
2023/02/24 02:22:12;;;;;;;5.40;3.90;;;;;;;-0.51;75.20;98509.19;105656;1260;62073;-25
2023/02/24 02:24:47;;;;;;;8.40;5.40;;;;;;;-0.79;75.85;98503.46;105657;1259;75482;-25
2023/02/24 02:27:33;;;;;;;4.70;3.70;;;;;;;-0.97;76.77;98504.06;105669;1260;75018;-25
2023/02/24 02:30:18;;;;;;;7.10;4.40;;;;;;;-0.66;76.79;98497.75;105671;1260;74349;-25
2023/02/24 02:33:38;;;;;;;5.10;3.20;;;;;;;-0.36;75.68;98500.53;105513;1254;61189;-25
2023/02/24 02:36:13;;;;;;;6.90;5.20;;;;;;;-0.43;75.69;98497.43;105251;1265;61183;-25
2023/02/24 02:39:07;;;;;;;6.50;4.60;;;;;;;-0.60;75.93;98498.50;105219;1266;74089;-25
2023/02/24 02:41:41;;;;;;;5.50;4.20;;;;;;;-0.89;77.28;98490.05;105430;1270;76184;-25
2023/02/24 02:44:35;;;;;;;10.10;6.10;;;;;;;-0.68;77.84;98492.74;105584;1255;74212;-25
2023/02/24 02:47:12;;;;;;;8.30;5.30;;;;;;;-0.19;76.20;98485.40;105389;1260;61399;-25
2023/02/24 02:49:42;;;;;;;8.90;5.70;;;;;;;-0.18;75.64;98485.02;105542;1254;61127;-26
2023/02/24 02:52:19;;;;;;;9.30;5.90;;;;;;;-0.31;76.28;98479.84;105568;1260;74353;-25
2023/02/24 02:54:51;;;;;;;9.80;5.40;;;;;;;-0.49;76.68;98477.91;105657;1261;75566;-25
2023/02/24 02:57:26;;;;;;;9.00;5.00;;;;;;;-0.63;77.46;98473.06;105653;1259;74281;-25
2023/02/24 03:00:22;;;;;;;11.60;6.70;;;;;;;-0.36;77.54;98473.41;105672;1253;61046;-25
2023/02/24 03:02:55;;;;;;;9.20;4.30;;;;;;;-0.04;75.99;98472.44;105530;1259;62356;-25
2023/02/24 03:05:29;;;;;;;9.50;6.40;;;;;;;-0.03;75.89;98468.27;105587;1258;74696;-25
2023/02/24 03:07:58;;;;;;;7.30;5.40;;;;;;;-0.24;76.67;98463.48;105528;1260;74888;-25
2023/02/24 03:10:28;;;;;;;10.50;6.00;;;;;;;-0.47;77.55;98462.63;105543;1260;73222;-25
2023/02/24 03:12:58;;;;;;;8.50;5.30;;;;;;;-0.49;77.95;98454.20;105511;1260;62786;-25
2023/02/24 03:15:30;;;;;;;11.00;7.20;;;;;;;-0.19;77.52;98454.52;105628;1263;61837;-25
2023/02/24 03:18:09;;;;;;;6.10;4.20;;;;;;;-0.04;76.47;98455.54;105431;1256;75638;-25
2023/02/24 03:20:45;;;;;;;10.30;6.20;;;;;;;-0.20;77.07;98448.46;105569;1261;75298;-25
2023/02/24 03:23:24;;;;;;;11.00;6.10;;;;;;;-0.37;77.79;98451.08;105561;1257;74410;-25
2023/02/24 03:26:00;;;;;;;8.30;4.90;;;;;;;-0.44;78.30;98449.91;105537;1260;62071;-25
2023/02/24 03:28:36;;;;;;;6.40;3.70;;;;;;;-0.07;77.44;98446.12;105245;1268;62160;-25
2023/02/24 03:31:09;;;;;;;6.80;5.00;;;;;;;-0.03;76.87;98440.83;105438;1257;75708;-25
2023/02/24 03:33:40;;;;;;;10.30;5.30;;;;;;;-0.15;77.38;98434.40;105369;1270;76135;-25
2023/02/24 03:36:13;;;;;;;7.00;4.70;;;;;;;-0.33;77.77;98435.56;105374;1260;74475;-25
2023/02/24 03:38:42;;;;;;;9.90;6.50;;;;;;;-0.44;78.70;98430.42;105496;1260;61148;-25
2023/02/24 03:41:10;;;;;;;7.20;4.10;;;;;;;-0.17;78.32;98423.38;105616;1265;61959;-25
2023/02/24 03:43:43;;;;;;;12.60;5.50;;;;;;;0.14;76.81;98417.66;105700;1259;74664;-25
2023/02/24 03:46:18;;;;;;;14.10;7.50;;;;;;;0.13;76.63;98417.34;105547;1263;75833;-25
2023/02/24 03:48:50;;;;;;;11.30;7.80;;;;;;;-0.08;77.35;98418.72;105285;1261;72917;-25
2023/02/24 03:51:20;;;;;;;6.90;4.90;;;;;;;-0.31;78.19;98409.39;105588;1257;61100;-25
2023/02/24 03:54:07;;;;;;;6.80;4.40;;;;;;;-0.27;78.87;98403.22;105574;1260;61195;-25
2023/02/24 03:56:44;;;;;;;8.00;4.70;;;;;;;0.25;77.06;98401.77;105420;1258;75304;-25
2023/02/24 03:59:36;;;;;;;12.40;6.10;;;;;;;0.18;77.07;98395.63;105487;1259;74852;-25
2023/02/24 04:02:19;;;;;;;7.80;5.10;;;;;;;0.05;77.40;98395.38;105794;1255;74117;-25
2023/02/24 04:05:08;;;;;;;9.70;5.60;;;;;;;-0.14;77.81;98392.55;105726;1255;61351;-25
2023/02/24 04:08:07;;;;;;;5.20;3.70;;;;;;;-0.31;79.13;98388.58;105745;1259;61859;-25
2023/02/24 04:10:40;;;;;;;7.10;4.20;;;;;;;0.11;78.24;98392.20;105883;1254;75620;-25
2023/02/24 04:16:00;;;;;;;8.70;5.40;;;;;;;0.26;76.99;98385.50;102627;1289;614787;-24
2023/02/24 04:18:29;;;;;;;10.90;6.10;;;;;;;0.05;77.44;98377.97;105124;1263;61174;-24
2023/02/24 04:20:59;;;;;;;8.60;5.40;;;;;;;-0.14;78.54;98377.86;104849;1265;61819;-24
2023/02/24 04:23:31;;;;;;;7.20;4.20;;;;;;;-0.06;78.63;98374.92;105151;1264;73130;-25
2023/02/24 04:25:59;;;;;;;;;;;;;;;0.43;77.48;98373.52;104864;1264;76220;-24
2023/02/24 04:28:27;;;;;;;11.20;7.60;;;;;;;0.51;76.72;98373.98;104216;1262;1838000;-25
2023/02/24 04:30:57;;;;;;;11.00;5.60;;;;;;;0.32;77.06;98365.54;105575;1255;61464;-24
2023/02/24 04:33:25;;;;;;;6.60;4.00;;;;;;;0.16;77.34;98362.77;105499;1254;61128;-25
2023/02/24 04:35:53;;;;;;;7.40;5.10;;;;;;;-0.08;78.36;98358.29;105121;1254;73581;-25
2023/02/24 04:38:21;;;;;;;6.00;4.10;;;;;;;-0.29;79.71;98355.39;105536;1257;76130;-25
2023/02/24 04:40:49;;;;;;;8.20;4.60;;;;;;;0.16;78.79;98354.40;105618;1255;74533;-24
2023/02/24 04:43:16;;;;;;;5.00;3.50;;;;;;;0.49;77.58;98355.98;105609;1257;61633;-26
2023/02/24 04:45:43;;;;;;;7.00;4.50;;;;;;;0.49;77.12;98352.91;105332;1263;61770;-24
2023/02/24 04:48:11;;;;;;;7.50;4.20;;;;;;;0.26;77.46;98356.98;105653;1257;74708;-24
2023/02/24 04:50:41;;;;;;;4.50;3.40;;;;;;;0.06;78.14;98351.64;105599;1261;75914;-25
2023/02/24 04:53:13;;;;;;;9.20;6.50;;;;;;;-0.17;79.33;98348.48;105562;1257;72324;-24
2023/02/24 04:55:42;;;;;;;7.50;4.70;;;;;;;0.01;79.55;98344.05;105585;1255;61052;-24
2023/02/24 04:58:10;;;;;;;6.70;4.10;;;;;;;0.36;78.05;98343.65;105522;1257;61811;-24
2023/02/24 05:00:40;;;;;;;9.50;4.80;;;;;;;0.35;77.89;98333.99;105484;1259;74355;-24
2023/02/24 05:03:09;;;;;;;7.60;5.10;;;;;;;0.14;78.63;98346.65;105162;1256;75876;-24
2023/02/24 05:05:36;;;;;;;6.90;4.00;;;;;;;0.03;78.93;98336.91;105505;1262;74158;-25
2023/02/24 05:08:08;;;;;;;7.10;4.10;;;;;;;-0.10;79.34;98339.27;105563;1256;61089;-24
2023/02/24 05:10:40;;;;;;;4.50;3.40;;;;;;;0.13;79.24;98337.99;105377;1258;61954;-24
2023/02/24 05:13:09;;;;;;;7.80;4.80;;;;;;;0.35;78.42;98341.32;105348;1257;73805;-25
2023/02/24 05:15:39;;;;;;;9.10;6.60;;;;;;;0.19;78.58;98333.23;105600;1261;76220;-24
2023/02/24 05:18:08;;;;;;;6.20;4.80;;;;;;;0.08;79.06;98326.95;105546;1256;73197;-24
2023/02/24 05:23:30;;;;;;;8.90;6.10;;;;;;;0.19;79.76;98328.63;105566;1259;62009;-24
2023/02/24 05:26:18;;;;;;;8.50;5.50;;;;;;;0.35;78.82;98327.67;105521;1259;75869;-25
2023/02/24 05:28:51;;;;;;;9.20;5.60;;;;;;;0.42;78.22;98331.43;105309;1263;76363;-24
2023/02/24 05:31:24;;;;;;;9.60;5.40;;;;;;;0.22;78.69;98327.16;105248;1257;73314;-26
2023/02/24 05:33:57;;;;;;;7.70;3.80;;;;;;;-0.05;79.66;98324.84;105608;1255;61801;-25
2023/02/24 05:36:26;;;;;;;8.20;5.20;;;;;;;0.11;80.30;98321.02;105422;1256;61156;-26
2023/02/24 05:39:06;;;;;;;6.90;4.50;;;;;;;0.49;78.62;98319.96;105463;1257;74837;-26
2023/02/24 05:41:40;;;;;;;9.90;5.60;;;;;;;0.49;78.56;98315.48;105582;1257;76149;-26
2023/02/24 05:44:12;;;;;;;11.00;5.60;;;;;;;0.43;78.19;98312.23;105473;1256;74189;-26
2023/02/24 05:46:40;;;;;;;6.20;4.00;;;;;;;0.23;78.84;98309.67;105198;1257;61249;-25
2023/02/24 05:49:13;;;;;;;6.90;3.60;;;;;;;0.04;80.23;98310.29;105336;1255;60984;-25
2023/02/24 05:51:42;;;;;;;8.60;5.20;;;;;;;0.51;79.00;98304.47;105498;1257;74336;-25
2023/02/24 05:54:12;;;;;;;5.40;4.00;;;;;;;0.64;78.14;98298.33;105592;1260;74757;-25
2023/02/24 05:56:42;;;;;;;7.10;4.70;;;;;;;0.58;77.99;98303.09;105704;1254;74315;-25
2023/02/24 05:59:20;;;;;;;8.40;5.70;;;;;;;0.28;79.05;98299.48;105541;1254;61385;-25
2023/02/24 06:01:52;;;;;;;6.40;4.60;;;;;;;0.13;79.95;98295.15;105624;1256;61585;-25
2023/02/24 06:04:26;;;;;;;10.10;7.00;;;;;;;0.39;79.76;98300.83;105435;1257;74858;-26
2023/02/24 06:06:54;;;;;;;7.30;5.40;;;;;;;0.60;78.57;98299.55;105516;1254;74938;-25
2023/02/24 06:09:22;;;;;;;8.90;4.80;;;;;;;0.49;78.72;98305.45;105588;1254;74090;-25
2023/02/24 06:11:49;;;;;;;7.60;5.60;;;;;;;0.38;79.07;98295.24;105520;1254;60978;-26
2023/02/24 06:14:16;;;;;;;7.50;4.30;;;;;;;0.14;80.08;98294.75;105227;1260;61901;-25
2023/02/24 06:16:43;;;;;;;8.90;5.10;;;;;;;0.49;79.52;98289.38;105626;1256;74842;-25
2023/02/24 06:19:11;;;;;;;4.30;3.40;;;;;;;0.75;78.58;98291.43;105731;1257;76089;-26
2023/02/24 06:21:42;;;;;;;9.50;5.50;;;;;;;0.71;78.51;98286.86;105678;1254;73826;-25
2023/02/24 06:24:20;;;;;;;7.60;4.70;;;;;;;0.65;78.46;98285.48;105552;1254;61311;-28
2023/02/24 06:26:52;;;;;;;7.10;4.90;;;;;;;0.45;79.00;98281.55;105476;1255;62231;-25
2023/02/24 06:29:20;;;;;;;6.20;4.00;;;;;;;0.43;79.71;98275.70;105900;1255;74573;-25
2023/02/24 06:31:48;;;;;;;5.30;3.50;;;;;;;0.76;78.66;98267.45;105955;1250;76018;-26
2023/02/24 06:34:17;;;;;;;11.60;7.50;;;;;;;0.89;78.03;98260.77;105831;1250;73183;-25
2023/02/24 06:36:45;;;;;;;7.80;5.20;;;;;;;0.62;78.76;98259.64;105735;1250;61365;-26
2023/02/24 06:39:13;;;;;;;3.50;2.60;;;;;;;0.51;79.09;98261.95;105588;1251;61094;-25
2023/02/24 06:41:41;;;;;;;8.20;5.20;;;;;;;0.40;80.23;98263.06;105819;1250;74917;-25
2023/02/24 06:44:08;;;;;;;4.30;3.60;;;;;;;0.68;79.33;98253.88;105929;1251;76055;-25
2023/02/24 06:46:36;;;;;;;6.60;3.50;;;;;;;0.79;78.94;98261.30;105751;1252;74346;-26
2023/02/24 06:49:03;;;;;;;9.50;6.90;;;;;;;0.75;78.70;98257.42;105937;1250;61231;-25
2023/02/24 06:51:30;;;;;;;9.20;5.30;;;;;;;0.55;79.39;98254.05;105955;1254;62127;-26
2023/02/24 06:53:58;;;;;;;3.80;2.60;;;;;;;0.44;80.24;98256.52;105948;1250;74610;-25
2023/02/24 06:56:26;;;;;;;7.80;5.40;;;;;;;0.70;79.93;98245.73;105722;1254;76146;-25
2023/02/24 06:58:55;;;;;;;5.50;3.80;;;;;;;0.93;78.89;98241.42;105896;1250;74256;-25
2023/02/24 07:01:27;;;;;;;7.10;5.20;;;;;;;0.93;78.83;98239.55;105872;1250;61735;-25
2023/02/24 07:04:16;;;;;;;9.30;5.80;;;;;;;0.71;79.22;98236.47;105607;1253;61049;-26
2023/02/24 07:06:51;;;;;;;7.00;4.80;;;;;;;0.65;80.08;98234.56;105724;1252;74511;-25
2023/02/24 07:09:20;;;;;;;8.50;4.70;;;;;;;1.13;78.58;98236.59;105908;1257;75685;-25
2023/02/24 07:11:51;;;;;;;5.10;3.70;;;;;;;1.12;78.43;98234.92;105671;1259;74318;-25
2023/02/24 07:14:19;;;;;;;5.30;3.60;;;;;;;1.17;78.04;98226.44;105550;1257;61192;-25
2023/02/24 07:16:53;;;;;;;7.50;4.70;;;;;;;1.00;78.29;98210.30;105598;1257;61160;-25
2023/02/24 07:19:23;;;;;;;5.40;3.60;;;;;;;0.85;79.04;98219.14;105794;1250;74520;-25
2023/02/24 07:21:58;;;;;;;9.10;5.80;;;;;;;1.16;78.79;98220.52;105574;1259;74808;-25
2023/02/24 07:24:35;;;;;;;10.30;5.90;;;;;;;1.43;77.51;98219.65;105762;1250;73921;-25
2023/02/24 07:27:11;;;;;;;8.80;5.00;;;;;;;1.45;77.41;98207.93;105645;1250;61058;-26
2023/02/24 07:29:38;;;;;;;6.10;4.50;;;;;;;1.37;77.41;98196.95;105599;1251;62102;-25
2023/02/24 07:32:07;;;;;;;8.30;5.60;;;;;;;1.17;78.20;98191.04;105810;1250;74816;-24
2023/02/24 07:34:38;;;;;;;8.00;5.80;;;;;;;1.32;78.21;98189.72;105613;1250;76046;-25
2023/02/24 07:37:07;;;;;;;5.60;3.80;;;;;;;1.53;77.25;98192.05;105732;1250;74030;-25
2023/02/24 07:39:36;;;;;;;6.70;5.30;;;;;;;1.49;77.42;98191.97;105690;1255;62504;-24
2023/02/24 07:42:09;;;;;;;8.40;5.00;;;;;;;1.37;77.82;98193.36;105593;1258;61820;-24
2023/02/24 07:44:45;;;;;;;7.40;4.20;;;;;;;1.32;78.15;98188.16;105663;1253;74903;-26
2023/02/24 07:47:12;;;;;;;5.70;4.20;;;;;;;1.51;78.01;98178.14;105756;1257;75963;-25
2023/02/24 07:49:39;;;;;;;6.00;4.20;;;;;;;1.78;76.55;98174.53;105855;1250;73103;-26
2023/02/24 07:52:07;;;;;;;5.40;4.20;;;;;;;1.80;76.39;98180.07;105786;1250;61628;-25
2023/02/24 07:54:36;;;;;;;5.90;4.70;;;;;;;1.62;76.77;98171.58;105921;1251;61825;-26
2023/02/24 07:57:04;;;;;;;6.20;4.00;;;;;;;1.38;77.92;98173.08;105935;1254;74892;-25
2023/02/24 07:59:34;;;;;;;6.10;2.60;;;;;;;1.34;78.36;98171.27;105929;1251;74673;-25
2023/02/24 08:02:03;;;;;;;6.10;3.70;;;;;;;1.36;78.50;98167.23;105644;1258;74360;-25
2023/02/24 08:04:38;;;;;;;8.90;5.60;;;;;;;1.82;77.68;98173.66;105810;1251;61109;-25
2023/02/24 08:07:13;;;;;;;9.70;3.90;;;;;;;2.14;75.94;98164.02;105554;1255;61862;-25
2023/02/24 08:10:08;;;;;;;6.40;3.80;;;;;;;2.20;75.39;98165.06;105951;1250;74539;-26
2023/02/24 08:12:33;;;;;;;8.10;4.40;;;;;;;1.99;75.89;98162.20;105912;1250;75164;-25
2023/02/24 08:15:15;;;;;;;5.90;4.30;;;;;;;1.76;76.65;98162.84;105950;1250;74037;-24
2023/02/24 08:17:43;;;;;;;7.40;5.50;;;;;;;1.53;77.67;98150.52;105748;1259;61287;-24
2023/02/24 08:22:43;;;;;;;6.90;4.00;;;;;;;2.01;76.87;98156.79;105916;1250;74645;-24
2023/02/24 08:25:17;;;;;;;5.30;3.90;;;;;;;2.34;76.06;98150.81;105930;1257;75824;-24
2023/02/24 08:27:54;;;;;;;7.40;4.00;;;;;;;2.55;74.77;98151.08;105910;1250;74364;-24
2023/02/24 08:30:45;;;;;;;8.60;6.80;;;;;;;2.70;74.41;98137.77;105862;1252;61010;-24
2023/02/24 08:33:19;;;;;;;8.80;5.40;;;;;;;2.67;74.12;98134.54;105814;1257;61570;-24
2023/02/24 08:35:50;;;;;;;6.80;4.60;;;;;;;2.49;74.64;98136.34;105796;1250;73876;-24
2023/02/24 08:38:19;;;;;;;10.30;7.10;;;;;;;2.44;75.42;98130.48;105588;1260;75716;-24
2023/02/24 08:40:49;;;;;;;10.40;6.00;;;;;;;2.29;75.14;98122.19;105684;1250;74207;-24
2023/02/24 08:46:17;;;;;;;5.20;3.60;;;;;;;2.65;75.10;98127.11;105739;1253;61135;-25
2023/02/24 08:56:29;;;;;;;4.80;3.60;;;;;;;2.55;75.16;98113.22;102667;1295;600783;-26
2023/02/24 08:59:04;;;;;;;6.20;3.90;;;;;;;2.54;75.35;98110.14;104857;1267;61180;-26
2023/02/24 09:01:35;;;;;;;8.50;3.70;;;;;;;3.00;74.77;98102.95;104882;1267;61203;-25
2023/02/24 09:04:05;;;;;;;10.60;6.30;;;;;;;3.49;72.61;98099.05;104818;1274;73798;-25
2023/02/24 09:06:56;;;;;;;8.80;4.30;;;;;;;3.39;72.39;98096.62;104894;1271;75298;-25
2023/02/24 09:09:41;;;;;;;12.10;5.70;;;;;;;3.30;73.20;98099.28;103488;1264;1965384;-25
2023/02/24 09:12:20;;;;;;;7.90;4.30;;;;;;;3.30;72.69;98092.27;105151;1269;61176;-25
2023/02/24 09:14:54;;;;;;;7.00;4.80;;;;;;;3.14;73.48;98096.54;105149;1269;61840;-25
2023/02/24 09:17:48;;;;;;;7.30;5.40;;;;;;;3.03;73.68;98088.38;104899;1264;72858;-25
2023/02/24 09:23:07;;;;;;;5.80;4.60;;;;;;;3.16;73.47;98085.81;105048;1263;74326;-25
2023/02/24 09:25:43;;;;;;;6.80;4.70;;;;;;;3.64;72.03;98077.30;104992;1263;61889;-25
2023/02/24 09:28:15;;;;;;;9.90;6.40;;;;;;;3.65;71.17;98079.30;104986;1263;61283;-25
2023/02/24 09:30:52;;;;;;;3.80;3.10;;;;;;;3.62;71.70;98081.21;105064;1265;75190;-25
2023/02/24 09:33:22;;;;;;;8.30;5.10;;;;;;;3.68;71.80;98079.05;105086;1263;75883;-25
2023/02/24 09:36:09;;;;;;;6.20;3.80;;;;;;;3.46;71.82;98072.82;105079;1264;74254;-27
2023/02/24 09:39:14;;;;;;;9.10;5.90;;;;;;;3.36;72.48;98069.52;105002;1264;61203;-25
2023/02/24 09:44:38;;;;;;;7.80;4.90;;;;;;;3.46;72.72;98065.64;104779;1267;74373;-25
2023/02/24 09:50:19;;;;;;;7.10;4.20;;;;;;;3.62;71.88;98063.17;104886;1267;73883;-25
2023/02/24 09:53:13;;;;;;;5.90;3.80;;;;;;;3.71;72.09;98053.13;104971;1264;61030;-25
2023/02/24 09:55:58;;;;;;;7.30;5.30;;;;;;;3.79;72.09;98046.90;104936;1264;61170;-25
2023/02/24 09:58:39;;;;;;;8.90;5.90;;;;;;;3.59;71.77;98039.83;104998;1267;73849;-25
2023/02/24 10:01:34;;;;;;;8.10;3.70;;;;;;;3.56;72.74;98034.20;104833;1272;75235;-25
2023/02/24 10:04:39;;;;;;;8.10;5.00;;;;;;;3.96;71.79;98033.02;105169;1268;72879;-25
2023/02/24 10:07:07;;;;;;;8.70;4.30;;;;;;;4.29;70.44;98024.15;104917;1269;61265;-26
2023/02/24 10:10:18;;;;;;;6.90;4.40;;;;;;;4.23;70.10;98019.96;104901;1269;62121;-25
2023/02/24 10:13:16;;;;;;;8.60;4.90;;;;;;;4.14;70.53;98010.96;105154;1269;74605;-25
2023/02/24 10:18:59;;;;;;;7.00;4.40;;;;;;;3.82;72.04;98000.55;104777;1268;72611;-25
2023/02/24 10:21:48;;;;;;;5.80;4.40;;;;;;;3.77;71.67;97994.85;104859;1264;61080;-25
2023/02/24 10:24:28;;;;;;;4.60;3.50;;;;;;;3.75;71.95;97991.36;104870;1266;61134;-25
2023/02/24 10:27:09;;;;;;;4.10;2.80;;;;;;;4.24;70.94;97991.52;104900;1266;74542;-25
2023/02/24 10:29:59;;;;;;;9.30;5.30;;;;;;;4.68;69.53;97991.96;104757;1272;76254;-25
2023/02/24 10:32:32;;;;;;;4.90;3.70;;;;;;;4.48;69.28;97987.73;104723;1266;73911;-25
2023/02/24 10:35:01;;;;;;;8.10;4.10;;;;;;;4.41;69.46;97987.22;104812;1269;61167;-25
2023/02/24 10:37:29;;;;;;;6.50;3.50;;;;;;;4.19;70.73;97985.36;104890;1266;61741;-25
2023/02/24 10:40:08;;;;;;;5.70;3.70;;;;;;;4.39;70.52;97981.14;104829;1266;73704;-24
2023/02/24 10:42:46;;;;;;;9.70;5.00;;;;;;;4.56;70.09;97981.15;104649;1272;76214;-25
2023/02/24 10:45:25;;;;;;;6.90;4.00;;;;;;;4.46;70.09;97977.56;104716;1266;74244;-25
2023/02/24 10:47:58;;;;;;;7.20;3.60;;;;;;;4.40;70.53;97968.88;104751;1264;61104;-24
2023/02/24 10:50:42;;;;;;;7.20;5.60;;;;;;;4.30;70.72;97962.96;104747;1265;61182;-25
2023/02/24 10:53:27;;;;;;;7.00;3.90;;;;;;;4.34;70.82;97961.83;104752;1266;74872;-24
2023/02/24 11:01:42;;;;;;;7.80;4.70;;;;;;;4.84;69.24;97946.58;104921;1269;61241;-25
2023/02/24 11:04:31;;;;;;;5.80;3.20;;;;;;;4.78;69.47;97944.95;104928;1271;61126;-24
2023/02/24 11:07:11;;;;;;;5.90;3.90;;;;;;;4.87;69.56;97941.16;105156;1263;73975;-24
2023/02/24 11:09:51;;;;;;;6.00;3.90;;;;;;;5.06;69.43;97937.86;104741;1267;75752;-25
2023/02/24 11:18:16;;;;;;;4.30;3.50;;;;;;;4.82;69.49;97923.04;104926;1264;62165;-25
2023/02/24 11:20:47;;;;;;;9.10;6.20;;;;;;;4.70;70.10;97923.04;104841;1267;74560;-24
2023/02/24 11:23:22;;;;;;;6.30;4.40;;;;;;;4.47;70.58;97917.31;104882;1267;75719;-24
2023/02/24 11:25:57;;;;;;;6.40;4.90;;;;;;;4.52;70.73;97911.65;104883;1267;74288;-24
2023/02/24 11:28:38;;;;;;;6.90;4.60;;;;;;;4.85;69.74;97915.75;104869;1272;61128;-25
2023/02/24 11:31:41;;;;;;;6.20;4.20;;;;;;;4.80;69.63;97911.27;105605;1258;61844;-25
2023/02/24 11:34:15;;;;;;;6.70;4.00;;;;;;;4.58;70.23;97913.08;105614;1257;74523;-24
2023/02/24 11:37:02;;;;;;;9.60;5.20;;;;;;;4.43;70.92;97909.05;105656;1257;75234;-24
2023/02/24 11:39:40;;;;;;;7.90;5.50;;;;;;;4.35;71.15;97910.03;105629;1257;74622;-25
2023/02/24 11:42:18;;;;;;;8.50;4.50;;;;;;;4.27;71.67;97904.38;105610;1257;62983;-25
2023/02/24 11:45:21;;;;;;;6.70;3.70;;;;;;;4.71;70.86;97904.04;105649;1263;61277;-24
2023/02/24 11:48:13;;;;;;;9.60;5.00;;;;;;;4.96;69.84;97901.87;105649;1257;72682;-24
2023/02/24 11:50:52;;;;;;;6.40;4.30;;;;;;;4.92;69.98;97898.14;105609;1259;76253;-24
2023/02/24 11:53:27;;;;;;;7.20;5.00;;;;;;;4.78;70.34;97897.15;105581;1263;73906;-25
2023/02/24 11:56:26;;;;;;;7.60;3.50;;;;;;;4.75;70.39;97895.17;105544;1262;61176;-24
2023/02/24 11:58:58;;;;;;;8.60;5.30;;;;;;;4.67;70.71;97893.16;105552;1258;61995;-24
2023/02/24 12:01:43;;;;;;;7.60;4.20;;;;;;;4.55;71.45;97895.94;105572;1257;75075;-24
2023/02/24 12:04:36;;;;;;;8.30;4.10;;;;;;;4.99;70.07;97891.95;105562;1257;75957;-24
2023/02/24 12:07:41;;;;;;;9.00;4.40;;;;;;;5.04;70.00;97892.83;105464;1260;72519;-24
2023/02/24 12:10:24;;;;;;;7.70;4.60;;;;;;;5.05;69.94;97893.90;104918;1263;62064;-24
2023/02/24 12:13:05;;;;;;;11.70;7.20;;;;;;;4.93;70.26;97889.52;105122;1263;61787;-24
2023/02/24 12:15:39;;;;;;;16.10;9.50;;;;;;;4.67;71.03;97887.50;104892;1267;74611;-24
2023/02/24 12:18:33;;;;;;;7.40;5.60;;;;;;;4.55;71.29;97877.40;105088;1263;76021;-24
2023/02/24 12:21:13;;;;;;;5.80;3.40;;;;;;;4.45;71.86;97876.73;105108;1268;74193;-25
2023/02/24 12:23:43;;;;;;;8.00;4.30;;;;;;;4.82;71.58;97876.39;105184;1263;61846;-24
2023/02/24 12:26:43;;;;;;;9.20;5.90;;;;;;;5.03;70.40;97871.76;104968;1262;61294;-24
2023/02/24 12:29:31;;;;;;;8.10;4.00;;;;;;;4.89;70.84;97871.06;105192;1263;73351;-24
2023/02/24 12:32:29;;;;;;;9.80;6.00;;;;;;;4.71;71.22;97865.55;105154;1268;74348;-24
2023/02/24 12:35:06;;;;;;;9.00;5.00;;;;;;;4.57;71.60;97861.44;105075;1268;74127;-24
2023/02/24 12:37:40;;;;;;;7.70;4.20;;;;;;;4.46;72.32;97858.31;105168;1268;62879;-24
2023/02/24 12:40:40;;;;;;;8.30;5.50;;;;;;;4.70;71.84;97857.67;105073;1268;61867;-24
2023/02/24 12:43:33;;;;;;;4.80;3.20;;;;;;;4.91;71.09;97853.18;104964;1269;74555;-25
2023/02/24 12:46:22;;;;;;;5.60;3.90;;;;;;;4.66;71.69;97854.22;105598;1259;75970;-25
2023/02/24 12:49:03;;;;;;;6.80;4.80;;;;;;;4.61;72.15;97843.96;105612;1257;74311;-25
2023/02/24 12:51:38;;;;;;;5.90;3.00;;;;;;;4.45;72.14;97839.98;105614;1257;61135;-25